createdAt,value
2017-10-05T00:01:10.174Z,14.02
2017-10-05T00:03:37.657Z,13.77
2017-10-05T00:06:05.119Z,13.84
2017-10-05T00:08:32.602Z,13.79
2017-10-05T00:11:00.054Z,13.82
2017-10-05T00:13:27.516Z,13.89
2017-10-05T00:15:55.092Z,13.91
2017-10-05T00:18:22.576Z,13.93
2017-10-05T00:20:50.098Z,13.91
2017-10-05T00:23:17.561Z,13.75
2017-10-05T00:25:45.062Z,13.84
2017-10-05T00:28:12.536Z,13.97
2017-10-05T00:30:40.014Z,13.85
2017-10-05T00:33:07.501Z,13.79
2017-10-05T00:35:34.985Z,13.76
2017-10-05T00:38:02.450Z,13.85
2017-10-05T00:40:29.928Z,14.03
2017-10-05T00:42:57.388Z,13.81
2017-10-05T00:45:24.864Z,13.83
2017-10-05T00:47:52.320Z,14.09
2017-10-05T00:50:19.801Z,13.86
2017-10-05T00:52:47.258Z,13.72
2017-10-05T00:55:14.753Z,13.71
2017-10-05T00:57:42.204Z,13.67
2017-10-05T01:00:09.703Z,13.72
2017-10-05T01:02:37.188Z,13.54
2017-10-05T01:05:04.746Z,13.66
2017-10-05T01:07:32.212Z,13.84
2017-10-05T01:09:59.655Z,13.72
2017-10-05T01:12:27.138Z,13.53
2017-10-05T01:14:54.595Z,13.56
2017-10-05T01:17:22.087Z,13.63
2017-10-05T01:19:49.536Z,13.96
2017-10-05T01:22:17.019Z,13.74
2017-10-05T01:24:44.468Z,13.59
2017-10-05T01:27:11.943Z,13.61
2017-10-05T01:29:39.428Z,13.48
2017-10-05T01:32:06.905Z,13.47
2017-10-05T01:34:34.399Z,13.46
2017-10-05T01:37:01.875Z,13.49
2017-10-05T01:39:29.324Z,13.43
2017-10-05T01:41:56.775Z,13.52
2017-10-05T01:44:24.248Z,13.54
2017-10-05T01:46:51.694Z,13.45
2017-10-05T01:49:19.263Z,13.48
2017-10-05T01:51:46.724Z,13.79
2017-10-05T01:54:14.203Z,13.67
2017-10-05T01:56:41.674Z,13.63
2017-10-05T01:59:09.147Z,13.75
2017-10-05T02:01:36.599Z,13.64
2017-10-05T02:04:04.182Z,13.60
2017-10-05T02:06:31.629Z,13.77
2017-10-05T02:08:59.103Z,13.68
2017-10-05T02:11:26.571Z,13.73
2017-10-05T02:13:54.051Z,13.68
2017-10-05T02:16:21.566Z,13.57
2017-10-05T02:18:49.006Z,13.64
2017-10-05T02:21:16.475Z,13.50
2017-10-05T02:23:43.938Z,13.63
2017-10-05T02:26:11.420Z,13.46
2017-10-05T02:28:38.952Z,13.63
2017-10-05T02:31:06.427Z,13.62
2017-10-05T02:33:33.888Z,13.58
2017-10-05T02:36:01.371Z,13.79
2017-10-05T02:38:28.828Z,13.72
2017-10-05T02:40:56.336Z,13.65
2017-10-05T02:43:23.916Z,13.65
2017-10-05T02:45:51.394Z,13.56
2017-10-05T02:48:18.843Z,13.66
2017-10-05T02:50:46.343Z,13.46
2017-10-05T02:53:13.812Z,13.50
2017-10-05T02:55:41.320Z,13.58
2017-10-05T02:58:08.767Z,13.34
2017-10-05T03:00:36.315Z,13.33
2017-10-05T03:03:03.855Z,13.29
2017-10-05T03:05:31.341Z,13.28
2017-10-05T03:07:58.869Z,13.37
2017-10-05T03:10:26.321Z,13.34
2017-10-05T03:12:53.890Z,13.28
2017-10-05T03:15:21.340Z,13.27
2017-10-05T03:17:48.807Z,13.17
2017-10-05T03:20:16.360Z,13.16
2017-10-05T03:22:43.879Z,13.14
2017-10-05T03:25:11.331Z,13.17
2017-10-05T03:27:38.816Z,13.16
2017-10-05T03:30:06.268Z,13.11
2017-10-05T03:32:33.748Z,13.12
2017-10-05T03:35:01.223Z,13.35
2017-10-05T03:37:28.757Z,13.16
2017-10-05T03:39:56.228Z,12.97
2017-10-05T03:42:23.679Z,13.31
2017-10-05T03:44:51.232Z,13.23
2017-10-05T03:47:18.679Z,13.26
2017-10-05T03:49:46.151Z,13.18
2017-10-05T03:52:13.615Z,13.17
2017-10-05T03:54:41.139Z,13.20
2017-10-05T03:57:08.590Z,13.22
2017-10-05T03:59:36.060Z,13.19
2017-10-05T04:02:03.504Z,13.19
2017-10-05T04:04:31.084Z,13.42
2017-10-05T04:06:58.531Z,13.19
2017-10-05T04:09:26.003Z,13.37
2017-10-05T04:11:53.455Z,13.17
2017-10-05T04:14:20.928Z,13.22
2017-10-05T04:16:48.377Z,13.37
2017-10-05T04:19:15.869Z,13.52
2017-10-05T04:21:43.332Z,13.28
2017-10-05T04:24:10.838Z,13.21
2017-10-05T04:26:38.308Z,13.15
2017-10-05T04:29:05.781Z,13.10
2017-10-05T04:31:33.243Z,13.10
2017-10-05T04:34:00.742Z,13.46
2017-10-05T04:36:28.199Z,13.28
2017-10-05T04:38:55.663Z,13.36
2017-10-05T04:41:23.102Z,13.26
2017-10-05T04:43:50.572Z,13.19
2017-10-05T04:46:18.063Z,13.32
2017-10-05T04:48:45.519Z,13.26
2017-10-05T04:51:12.995Z,13.17
2017-10-05T04:53:40.447Z,13.16
2017-10-05T04:56:07.927Z,13.39
2017-10-05T04:58:35.380Z,13.31
2017-10-05T05:01:02.852Z,13.28
2017-10-05T05:03:30.318Z,13.12
2017-10-05T05:05:57.810Z,13.04
2017-10-05T05:08:25.363Z,13.07
2017-10-05T05:10:52.855Z,13.00
2017-10-05T05:13:20.303Z,13.03
2017-10-05T05:15:47.778Z,12.93
2017-10-05T05:18:15.230Z,13.23
2017-10-05T05:20:42.756Z,13.09
2017-10-05T05:23:10.215Z,13.12
2017-10-05T05:25:37.712Z,13.13
2017-10-05T05:28:05.180Z,12.99
2017-10-05T05:30:32.630Z,13.32
2017-10-05T05:33:00.100Z,13.21
2017-10-05T05:35:27.547Z,13.04
2017-10-05T05:37:55.025Z,12.92
2017-10-05T05:40:22.479Z,12.93
2017-10-05T05:42:49.944Z,12.93
2017-10-05T05:45:17.414Z,13.03
2017-10-05T05:47:44.883Z,13.08
2017-10-05T05:50:12.333Z,13.04
2017-10-05T05:52:39.831Z,12.94
2017-10-05T05:55:07.283Z,13.08
2017-10-05T05:57:34.816Z,13.10
2017-10-05T06:00:02.263Z,13.15
2017-10-05T06:02:29.736Z,13.18
2017-10-05T06:04:57.199Z,12.94
2017-10-05T06:07:24.651Z,13.01
2017-10-05T06:09:52.136Z,13.17
2017-10-05T06:12:19.588Z,13.16
2017-10-05T06:14:47.056Z,13.02
2017-10-05T06:17:14.554Z,13.03
2017-10-05T06:19:42.025Z,13.10
2017-10-05T06:22:09.575Z,13.03
2017-10-05T06:24:37.043Z,13.13
2017-10-05T06:27:04.494Z,13.30
2017-10-05T06:29:32.008Z,13.26
2017-10-05T06:31:59.455Z,13.37
2017-10-05T06:34:26.956Z,13.40
2017-10-05T06:36:54.433Z,13.45
2017-10-05T06:39:21.917Z,13.57
2017-10-05T06:41:49.374Z,13.66
2017-10-05T06:44:16.843Z,13.77
2017-10-05T06:46:44.291Z,13.91
2017-10-05T06:49:11.794Z,13.86
2017-10-05T06:51:39.305Z,14.05
2017-10-05T06:54:06.809Z,14.19
2017-10-05T06:56:34.301Z,13.99
2017-10-05T06:59:01.764Z,14.03
2017-10-05T07:01:29.247Z,13.99
2017-10-05T07:03:56.699Z,14.06
2017-10-05T07:06:24.175Z,13.97
2017-10-05T07:08:51.653Z,14.07
2017-10-05T07:11:19.119Z,14.11
2017-10-05T07:13:46.586Z,14.11
2017-10-05T07:16:14.059Z,14.11
2017-10-05T07:18:41.515Z,14.06
2017-10-05T07:21:08.996Z,14.12
2017-10-05T07:23:36.463Z,14.28
2017-10-05T07:26:03.931Z,14.40
2017-10-05T07:28:31.380Z,14.35
2017-10-05T07:30:58.851Z,14.48
2017-10-05T07:33:26.330Z,14.27
2017-10-05T07:35:53.808Z,14.56
2017-10-05T07:38:21.260Z,14.53
2017-10-05T07:40:48.711Z,14.50
2017-10-05T07:43:16.242Z,14.56
2017-10-05T07:45:43.699Z,14.61
2017-10-05T07:48:11.263Z,14.69
2017-10-05T07:50:38.713Z,14.67
2017-10-05T07:53:06.249Z,14.67
2017-10-05T07:55:33.701Z,14.74
2017-10-05T07:58:01.185Z,14.96
2017-10-05T08:00:28.634Z,14.99
2017-10-05T08:02:56.191Z,15.10
2017-10-05T08:05:23.679Z,15.36
2017-10-05T08:07:51.144Z,15.40
2017-10-05T08:10:18.588Z,15.42
2017-10-05T08:12:46.059Z,15.49
2017-10-05T08:15:13.515Z,15.60
2017-10-05T08:17:40.976Z,15.79
2017-10-05T08:20:08.428Z,15.92
2017-10-05T08:22:35.960Z,15.98
2017-10-05T08:25:03.416Z,16.17
2017-10-05T08:27:30.970Z,16.37
2017-10-05T08:29:58.411Z,16.63
2017-10-05T08:32:25.891Z,16.52
2017-10-05T08:34:53.704Z,16.73
2017-10-05T08:37:21.162Z,16.68
2017-10-05T08:39:48.648Z,16.59
2017-10-05T08:42:16.091Z,16.72
2017-10-05T08:44:43.546Z,16.79
2017-10-05T08:47:11.036Z,16.80
2017-10-05T08:49:38.499Z,16.81
2017-10-05T08:52:05.948Z,16.87
2017-10-05T08:54:33.520Z,16.85
2017-10-05T08:57:01.084Z,16.82
2017-10-05T08:59:28.629Z,16.92
2017-10-05T09:01:56.083Z,16.87
2017-10-05T09:04:23.591Z,16.81
2017-10-05T09:06:51.099Z,16.88
2017-10-05T09:09:18.566Z,16.99
2017-10-05T09:11:46.037Z,17.09
2017-10-05T09:14:13.563Z,17.01
2017-10-05T09:16:41.040Z,17.10
2017-10-05T09:19:08.483Z,17.08
2017-10-05T09:21:35.967Z,17.24
2017-10-05T09:24:03.500Z,17.08
2017-10-05T09:26:31.051Z,17.03
2017-10-05T09:28:58.491Z,17.15
2017-10-05T09:31:25.964Z,17.03
2017-10-05T09:33:53.403Z,16.96
2017-10-05T09:36:20.899Z,16.98
2017-10-05T09:38:48.339Z,17.15
2017-10-05T09:41:15.804Z,16.95
2017-10-05T09:43:43.273Z,16.91
2017-10-05T09:46:10.735Z,16.85
2017-10-05T09:48:38.184Z,16.86
2017-10-05T09:51:05.687Z,17.00
2017-10-05T09:53:33.132Z,17.13
2017-10-05T09:56:00.616Z,17.57
2017-10-05T09:58:28.083Z,17.95
2017-10-05T10:00:55.544Z,18.12
2017-10-05T10:03:23.056Z,18.14
2017-10-05T10:05:50.502Z,18.29
2017-10-05T10:08:17.972Z,18.03
2017-10-05T10:10:45.415Z,17.86
2017-10-05T10:13:12.933Z,17.68
2017-10-05T10:15:40.400Z,18.01
2017-10-05T10:18:07.866Z,17.87
2017-10-05T10:20:35.410Z,18.03
2017-10-05T10:23:02.875Z,18.09
2017-10-05T10:25:30.417Z,18.30
2017-10-05T10:27:57.919Z,18.34
2017-10-05T10:30:25.395Z,17.80
2017-10-05T10:32:52.871Z,17.72
2017-10-05T10:35:20.354Z,17.55
2017-10-05T10:37:47.918Z,17.54
2017-10-05T10:40:15.394Z,17.63
2017-10-05T10:42:42.872Z,17.51
2017-10-05T10:45:10.433Z,17.57
2017-10-05T10:47:37.940Z,17.69
2017-10-05T10:50:05.497Z,17.80
2017-10-05T10:52:32.953Z,17.95
2017-10-05T10:55:00.415Z,17.91
2017-10-05T10:57:27.969Z,17.60
2017-10-05T10:59:55.467Z,17.43
2017-10-05T11:02:22.929Z,17.49
2017-10-05T11:04:50.507Z,17.75
2017-10-05T11:07:17.952Z,17.95
2017-10-05T11:09:45.418Z,17.88
2017-10-05T11:12:12.863Z,17.59
2017-10-05T11:14:40.369Z,17.70
2017-10-05T11:17:07.853Z,17.50
2017-10-05T11:19:35.324Z,17.51
2017-10-05T11:22:02.772Z,17.44
2017-10-05T11:24:30.233Z,17.68
2017-10-05T11:26:57.687Z,17.45
2017-10-05T11:29:25.211Z,17.44
2017-10-05T11:31:52.771Z,17.41
2017-10-05T11:34:20.247Z,17.56
2017-10-05T11:36:47.784Z,17.50
2017-10-05T11:39:15.251Z,17.28
2017-10-05T11:41:42.700Z,17.52
2017-10-05T11:44:10.258Z,17.51
2017-10-05T11:46:37.705Z,17.52
2017-10-05T11:49:05.187Z,17.44
2017-10-05T11:51:32.632Z,17.34
2017-10-05T11:54:00.150Z,16.93
2017-10-05T11:56:27.615Z,16.99
2017-10-05T11:58:55.093Z,16.74
2017-10-05T12:01:22.531Z,16.85
2017-10-05T12:03:50.035Z,16.82
2017-10-05T12:06:17.518Z,16.43
2017-10-05T12:08:45.029Z,16.37
2017-10-05T12:11:12.524Z,16.51
2017-10-05T12:13:40.040Z,16.41
2017-10-05T12:16:07.523Z,16.31
2017-10-05T12:18:35.082Z,16.25
2017-10-05T12:21:02.616Z,16.23
2017-10-05T12:23:30.060Z,16.23
2017-10-05T12:25:57.526Z,16.52
2017-10-05T12:28:24.996Z,16.32
2017-10-05T12:30:52.551Z,16.49
2017-10-05T12:33:20.007Z,16.38
2017-10-05T12:35:47.472Z,16.39
2017-10-05T12:38:14.927Z,16.27
2017-10-05T12:40:42.427Z,16.23
2017-10-05T12:43:09.878Z,16.25
2017-10-05T12:45:37.344Z,16.50
2017-10-05T12:48:04.792Z,16.24
2017-10-05T12:50:32.259Z,16.30
2017-10-05T12:52:59.702Z,16.26
2017-10-05T12:55:27.216Z,16.45
2017-10-05T12:57:54.666Z,16.38
2017-10-05T13:00:22.127Z,16.34
2017-10-05T13:02:49.576Z,16.32
2017-10-05T13:05:17.044Z,16.43
2017-10-05T13:07:44.492Z,16.45
2017-10-05T13:10:11.955Z,16.39
2017-10-05T13:12:39.402Z,16.66
2017-10-05T13:15:06.967Z,16.59
2017-10-05T13:17:34.412Z,16.78
2017-10-05T13:20:01.931Z,16.66
2017-10-05T13:22:29.396Z,16.81
2017-10-05T13:24:56.871Z,16.88
2017-10-05T13:27:24.324Z,16.67
2017-10-05T13:29:51.812Z,16.60
2017-10-05T13:32:19.261Z,16.58
2017-10-05T13:34:46.749Z,16.58
2017-10-05T13:37:14.225Z,16.52
2017-10-05T13:39:41.732Z,16.49
2017-10-05T13:42:09.290Z,16.44
2017-10-05T13:44:36.769Z,16.42
2017-10-05T13:47:04.249Z,16.41
2017-10-05T13:49:31.769Z,16.47
2017-10-05T13:51:59.235Z,16.55
2017-10-05T13:54:26.679Z,16.53
2017-10-05T13:56:54.164Z,16.59
2017-10-05T13:59:21.615Z,16.66
2017-10-05T14:01:49.082Z,16.74
2017-10-05T14:04:16.532Z,16.87
2017-10-05T14:06:44.039Z,16.51
2017-10-05T14:09:11.484Z,16.10
2017-10-05T14:11:38.955Z,15.90
2017-10-05T14:14:06.403Z,15.95
2017-10-05T14:16:33.867Z,15.68
2017-10-05T14:19:01.325Z,15.67
2017-10-05T14:21:28.803Z,15.60
2017-10-05T14:23:56.243Z,15.60
2017-10-05T14:26:23.714Z,15.45
2017-10-05T14:28:51.169Z,15.46
2017-10-05T14:31:18.635Z,15.41
2017-10-05T14:33:46.083Z,15.33
2017-10-05T14:36:13.573Z,15.40
2017-10-05T14:38:41.097Z,15.46
2017-10-05T14:41:08.657Z,15.20
2017-10-05T14:43:36.125Z,15.49
2017-10-05T14:46:03.624Z,15.38
2017-10-05T14:48:31.111Z,15.32
2017-10-05T14:50:58.575Z,15.21
2017-10-05T14:53:26.051Z,15.06
2017-10-05T14:55:53.536Z,15.01
2017-10-05T14:58:21.167Z,15.03
2017-10-05T15:00:48.616Z,15.00
2017-10-05T15:03:16.092Z,15.01
2017-10-05T15:05:43.584Z,15.19
2017-10-05T15:08:11.092Z,15.03
2017-10-05T15:10:38.592Z,14.86
2017-10-05T15:13:06.080Z,14.91
2017-10-05T15:15:33.578Z,14.92
2017-10-05T15:18:01.153Z,14.91
2017-10-05T15:20:28.679Z,15.15
2017-10-05T15:22:56.156Z,15.08
2017-10-05T15:25:23.620Z,15.08
2017-10-05T15:27:51.096Z,15.05
2017-10-05T15:30:18.546Z,15.29
2017-10-05T15:32:46.001Z,15.06
2017-10-05T15:35:13.518Z,15.00
2017-10-05T15:37:40.958Z,15.06
2017-10-05T15:40:08.463Z,14.97
2017-10-05T15:42:35.990Z,15.09
2017-10-05T15:45:03.481Z,15.11
2017-10-05T15:47:30.940Z,15.09
2017-10-05T15:49:58.411Z,14.92
2017-10-05T15:52:25.855Z,15.10
2017-10-05T15:54:53.673Z,14.88
2017-10-05T15:57:21.119Z,14.80
2017-10-05T15:59:48.584Z,15.04
2017-10-05T16:02:16.052Z,14.97
2017-10-05T16:04:43.527Z,15.10
2017-10-05T16:07:10.975Z,15.06
2017-10-05T16:09:38.674Z,15.04
2017-10-05T16:12:06.220Z,15.08
2017-10-05T16:14:33.777Z,14.88
2017-10-05T16:17:01.232Z,14.86
2017-10-05T16:19:28.777Z,14.67
2017-10-05T16:21:56.318Z,14.82
2017-10-05T16:24:23.787Z,15.00
2017-10-05T16:26:51.238Z,14.70
2017-10-05T16:29:18.722Z,14.63
2017-10-05T16:31:46.163Z,14.46
2017-10-05T16:34:13.702Z,14.42
2017-10-05T16:36:41.151Z,14.36
2017-10-05T16:39:08.718Z,14.45
2017-10-05T16:41:36.163Z,14.33
2017-10-05T16:44:03.634Z,14.35
2017-10-05T16:46:31.087Z,14.35
2017-10-05T16:48:58.645Z,14.33
2017-10-05T16:51:26.139Z,14.29
2017-10-05T16:53:53.615Z,14.24
2017-10-05T16:56:21.104Z,14.08
2017-10-05T16:58:48.583Z,14.10
2017-10-05T17:01:16.060Z,14.07
2017-10-05T17:03:43.538Z,14.18
2017-10-05T17:06:11.057Z,13.93
2017-10-05T17:08:38.515Z,13.99
2017-10-05T17:11:05.991Z,13.96
2017-10-05T17:13:33.447Z,13.83
2017-10-05T17:16:00.932Z,13.80
2017-10-05T17:18:28.391Z,13.60
2017-10-05T17:20:55.875Z,13.49
2017-10-05T17:23:23.540Z,13.57
2017-10-05T17:25:51.001Z,13.35
2017-10-05T17:28:18.447Z,13.54
2017-10-05T17:30:45.935Z,13.57
2017-10-05T17:33:13.391Z,13.63
2017-10-05T17:35:40.933Z,13.34
2017-10-05T17:38:08.405Z,13.50
2017-10-05T17:40:35.876Z,13.84
2017-10-05T17:43:03.405Z,13.70
2017-10-05T17:45:30.872Z,13.85
2017-10-05T17:47:58.328Z,13.78
2017-10-05T17:50:25.876Z,13.78
2017-10-05T17:52:53.419Z,14.00
2017-10-05T17:55:20.999Z,13.53
2017-10-05T17:57:48.459Z,13.26
2017-10-05T18:00:15.935Z,13.81
2017-10-05T18:02:43.391Z,13.78
2017-10-05T18:05:10.836Z,13.71
2017-10-05T18:07:38.307Z,13.34
2017-10-05T18:10:05.837Z,13.87
2017-10-05T18:12:33.394Z,13.63
2017-10-05T18:15:00.844Z,13.24
2017-10-05T18:17:28.326Z,13.57
2017-10-05T18:19:55.779Z,13.38
2017-10-05T18:22:23.251Z,12.88
2017-10-05T18:24:50.783Z,12.57
2017-10-05T18:27:18.292Z,12.54
2017-10-05T18:29:45.770Z,12.38
2017-10-05T18:32:13.304Z,12.16
2017-10-05T18:34:40.776Z,12.15
2017-10-05T18:37:09.216Z,11.97
2017-10-05T18:39:36.707Z,11.78
2017-10-05T18:42:04.179Z,11.73
2017-10-05T18:44:31.644Z,11.56
2017-10-05T18:46:59.135Z,11.75
2017-10-05T18:49:26.583Z,11.50
2017-10-05T18:51:54.056Z,11.46
2017-10-05T18:54:21.516Z,11.35
2017-10-05T18:56:48.993Z,11.53
2017-10-05T18:59:16.435Z,11.55
2017-10-05T19:01:43.905Z,11.57
2017-10-05T19:04:11.384Z,11.83
2017-10-05T19:06:38.865Z,11.52
2017-10-05T19:09:06.327Z,11.71
2017-10-05T19:11:33.813Z,11.76
2017-10-05T19:14:01.268Z,11.67
2017-10-05T19:16:28.730Z,11.52
2017-10-05T19:18:56.219Z,11.42
2017-10-05T19:21:23.677Z,11.30
2017-10-05T19:23:51.376Z,10.90
2017-10-05T19:26:18.833Z,10.71
2017-10-05T19:28:46.348Z,10.81
2017-10-05T19:31:13.809Z,10.55
2017-10-05T19:33:41.365Z,10.47
2017-10-05T19:36:08.831Z,10.24
2017-10-05T19:38:36.321Z,10.25
2017-10-05T19:41:03.798Z,10.02
2017-10-05T19:43:31.281Z,9.91
2017-10-05T19:45:58.777Z,9.80
2017-10-05T19:48:26.253Z,9.65
2017-10-05T19:50:53.701Z,9.59
2017-10-05T19:53:21.177Z,9.58
2017-10-05T19:55:48.640Z,9.56
2017-10-05T19:58:16.276Z,9.55
2017-10-05T20:00:43.745Z,9.56
2017-10-05T20:03:11.220Z,9.49
2017-10-05T20:05:38.749Z,9.33
2017-10-05T20:08:06.220Z,9.08
2017-10-05T20:10:33.672Z,9.17
2017-10-05T20:13:01.154Z,8.96
2017-10-05T20:15:32.589Z,8.98
2017-10-05T20:18:10.905Z,8.84
2017-10-05T20:20:41.710Z,8.77
2017-10-05T20:26:34.600Z,8.61
2017-10-05T20:29:03.016Z,8.53
2017-10-05T20:34:35.232Z,8.64
2017-10-05T20:37:02.708Z,8.86
2017-10-05T20:39:30.224Z,8.69
2017-10-05T20:41:57.793Z,8.76
2017-10-05T20:44:25.285Z,8.76
2017-10-05T20:46:52.733Z,8.63
2017-10-05T20:49:20.204Z,8.49
2017-10-05T20:51:47.666Z,8.34
2017-10-05T20:54:15.138Z,8.27
2017-10-05T20:56:42.658Z,8.20
2017-10-05T20:59:10.124Z,8.43
2017-10-05T21:01:37.685Z,8.50
2017-10-05T21:04:05.158Z,8.44
2017-10-05T21:06:32.637Z,8.64
2017-10-05T21:09:00.156Z,8.31
2017-10-05T21:11:27.605Z,8.78
2017-10-05T21:13:55.077Z,8.52
2017-10-05T21:16:22.533Z,8.79
2017-10-05T21:18:50.011Z,8.84
2017-10-05T21:21:17.541Z,8.78
2017-10-05T21:23:45.029Z,8.91
2017-10-05T21:26:12.480Z,8.88
2017-10-05T21:28:40.013Z,8.71
2017-10-05T21:31:07.573Z,8.67
2017-10-05T21:33:35.044Z,8.54
2017-10-05T21:36:02.608Z,8.39
2017-10-05T21:38:30.106Z,8.53
2017-10-05T21:40:57.561Z,8.19
2017-10-05T21:43:25.008Z,8.24
2017-10-05T21:45:52.496Z,8.09
2017-10-05T21:48:19.973Z,8.28
2017-10-05T21:50:47.440Z,8.26
2017-10-05T21:53:14.991Z,8.17
2017-10-05T21:55:42.545Z,8.02
2017-10-05T21:58:10.002Z,8.13
2017-10-05T22:00:37.560Z,7.99
2017-10-05T22:03:05.125Z,7.76
2017-10-05T22:05:32.608Z,7.72
2017-10-05T22:08:00.064Z,7.81
2017-10-05T22:10:27.600Z,7.66
2017-10-05T22:12:55.076Z,7.66
2017-10-05T22:15:22.556Z,7.79
2017-10-05T22:17:50.020Z,7.60
2017-10-05T22:20:17.501Z,7.41
2017-10-05T22:22:44.963Z,7.45
2017-10-05T22:25:12.432Z,7.42
2017-10-05T22:27:39.931Z,7.30
2017-10-05T22:30:07.404Z,7.40
2017-10-05T22:32:34.857Z,7.28
2017-10-05T22:35:02.329Z,7.29
2017-10-05T22:37:29.780Z,7.32
2017-10-05T22:39:57.256Z,7.20
2017-10-05T22:42:24.713Z,7.13
2017-10-05T22:44:52.201Z,7.01
2017-10-05T22:47:19.677Z,7.14
2017-10-05T22:49:47.131Z,7.08
2017-10-05T22:52:14.608Z,7.09
2017-10-05T22:54:42.058Z,7.00
2017-10-05T22:57:09.585Z,6.95
2017-10-05T22:59:37.040Z,6.97
2017-10-05T23:02:04.536Z,6.99
2017-10-05T23:04:31.992Z,6.92
2017-10-05T23:06:59.485Z,6.89
2017-10-05T23:09:26.956Z,6.91
2017-10-05T23:11:54.515Z,6.74
2017-10-05T23:14:21.971Z,6.76
2017-10-05T23:16:49.445Z,6.71
2017-10-05T23:19:16.900Z,6.64
2017-10-05T23:21:44.391Z,6.81
2017-10-05T23:24:11.841Z,6.83
2017-10-05T23:26:39.319Z,6.85
2017-10-05T23:29:06.788Z,6.84
2017-10-05T23:31:34.269Z,6.95
2017-10-05T23:34:01.736Z,7.04
2017-10-05T23:36:29.208Z,7.09
2017-10-05T23:38:56.669Z,6.98
2017-10-05T23:41:24.217Z,6.93
2017-10-05T23:43:51.688Z,6.89
2017-10-05T23:46:19.167Z,6.96
2017-10-05T23:48:46.636Z,6.66
2017-10-05T23:51:14.091Z,6.76
2017-10-05T23:53:41.564Z,7.01
2017-10-05T23:56:09.016Z,7.25
2017-10-05T23:58:36.597Z,7.24
